sensor_id;sensor_type;location;lat;lon;timestamp;temperature;humidity
12408;DHT22;6268;48.188;17.134;2022-07-10T00:00:10;19.70;99.90
12408;DHT22;6268;48.188;17.134;2022-07-10T00:02:41;19.70;99.90
12408;DHT22;6268;48.188;17.134;2022-07-10T00:05:11;19.60;99.90
12408;DHT22;6268;48.188;17.134;2022-07-10T00:07:46;19.70;99.90
12408;DHT22;6268;48.188;17.134;2022-07-10T00:10:17;19.60;99.90
12408;DHT22;6268;48.188;17.134;2022-07-10T00:12:47;19.70;99.90
12408;DHT22;6268;48.188;17.134;2022-07-10T00:15:17;19.60;99.90
12408;DHT22;6268;48.188;17.134;2022-07-10T00:17:47;19.60;99.90
12408;DHT22;6268;48.188;17.134;2022-07-10T00:20:16;19.60;99.90
12408;DHT22;6268;48.188;17.134;2022-07-10T00:22:45;19.60;99.90
12408;DHT22;6268;48.188;17.134;2022-07-10T00:25:14;19.60;99.90
12408;DHT22;6268;48.188;17.134;2022-07-10T00:27:44;19.50;99.90
12408;DHT22;6268;48.188;17.134;2022-07-10T00:30:13;19.50;99.90
12408;DHT22;6268;48.188;17.134;2022-07-10T00:32:42;19.40;99.90
12408;DHT22;6268;48.188;17.134;2022-07-10T00:35:10;19.40;99.90
12408;DHT22;6268;48.188;17.134;2022-07-10T00:37:39;19.40;99.90
12408;DHT22;6268;48.188;17.134;2022-07-10T00:40:09;19.40;99.90
12408;DHT22;6268;48.188;17.134;2022-07-10T00:42:38;19.40;99.90
12408;DHT22;6268;48.188;17.134;2022-07-10T00:45:09;19.40;99.90
12408;DHT22;6268;48.188;17.134;2022-07-10T00:47:38;19.30;99.90
12408;DHT22;6268;48.188;17.134;2022-07-10T00:50:07;19.30;99.90
12408;DHT22;6268;48.188;17.134;2022-07-10T00:52:37;19.30;99.90
12408;DHT22;6268;48.188;17.134;2022-07-10T00:55:08;19.30;99.90
12408;DHT22;6268;48.188;17.134;2022-07-10T00:57:38;19.30;99.90
12408;DHT22;6268;48.188;17.134;2022-07-10T01:00:10;19.30;99.90
12408;DHT22;6268;48.188;17.134;2022-07-10T01:02:41;19.30;99.90
12408;DHT22;6268;48.188;17.134;2022-07-10T01:05:11;19.30;99.90
12408;DHT22;6268;48.188;17.134;2022-07-10T01:07:40;19.30;99.90
12408;DHT22;6268;48.188;17.134;2022-07-10T01:10:09;19.40;99.90
12408;DHT22;6268;48.188;17.134;2022-07-10T01:12:38;19.40;99.90
12408;DHT22;6268;48.188;17.134;2022-07-10T01:15:09;19.40;99.90
12408;DHT22;6268;48.188;17.134;2022-07-10T01:17:39;19.30;99.90
12408;DHT22;6268;48.188;17.134;2022-07-10T01:20:08;19.20;99.90
12408;DHT22;6268;48.188;17.134;2022-07-10T01:22:39;19.20;99.90
12408;DHT22;6268;48.188;17.134;2022-07-10T01:25:08;19.20;99.90
12408;DHT22;6268;48.188;17.134;2022-07-10T01:27:38;19.20;99.90
12408;DHT22;6268;48.188;17.134;2022-07-10T01:30:08;19.20;99.90
12408;DHT22;6268;48.188;17.134;2022-07-10T01:32:38;19.20;99.90
12408;DHT22;6268;48.188;17.134;2022-07-10T01:35:08;19.10;99.90
12408;DHT22;6268;48.188;17.134;2022-07-10T01:37:39;19.00;99.90
12408;DHT22;6268;48.188;17.134;2022-07-10T01:40:08;19.00;99.90
12408;DHT22;6268;48.188;17.134;2022-07-10T01:42:37;18.90;99.90
12408;DHT22;6268;48.188;17.134;2022-07-10T01:45:08;18.80;99.90
12408;DHT22;6268;48.188;17.134;2022-07-10T01:47:37;18.70;99.90
12408;DHT22;6268;48.188;17.134;2022-07-10T01:50:07;18.60;99.90
12408;DHT22;6268;48.188;17.134;2022-07-10T01:52:36;18.60;99.90
12408;DHT22;6268;48.188;17.134;2022-07-10T01:55:08;18.50;99.90
12408;DHT22;6268;48.188;17.134;2022-07-10T01:57:37;18.40;99.90
12408;DHT22;6268;48.188;17.134;2022-07-10T02:00:07;18.40;99.90
12408;DHT22;6268;48.188;17.134;2022-07-10T02:02:37;18.30;99.90
12408;DHT22;6268;48.188;17.134;2022-07-10T02:05:06;18.30;99.90
12408;DHT22;6268;48.188;17.134;2022-07-10T02:07:34;18.20;99.90
12408;DHT22;6268;48.188;17.134;2022-07-10T02:10:03;18.20;99.90
12408;DHT22;6268;48.188;17.134;2022-07-10T02:12:34;18.10;99.90
12408;DHT22;6268;48.188;17.134;2022-07-10T02:15:03;18.10;99.90
12408;DHT22;6268;48.188;17.134;2022-07-10T02:17:33;18.10;99.90
12408;DHT22;6268;48.188;17.134;2022-07-10T02:20:01;18.00;99.90
12408;DHT22;6268;48.188;17.134;2022-07-10T02:22:31;18.00;99.90
12408;DHT22;6268;48.188;17.134;2022-07-10T02:25:00;18.10;99.90
12408;DHT22;6268;48.188;17.134;2022-07-10T02:27:28;18.10;99.90
12408;DHT22;6268;48.188;17.134;2022-07-10T02:29:58;18.10;99.90
12408;DHT22;6268;48.188;17.134;2022-07-10T02:32:27;18.10;99.90
12408;DHT22;6268;48.188;17.134;2022-07-10T02:34:56;18.00;99.90
12408;DHT22;6268;48.188;17.134;2022-07-10T02:37:25;18.00;99.90
12408;DHT22;6268;48.188;17.134;2022-07-10T02:39:53;18.10;99.90
12408;DHT22;6268;48.188;17.134;2022-07-10T02:42:22;18.10;99.90
12408;DHT22;6268;48.188;17.134;2022-07-10T02:44:51;18.10;99.90
12408;DHT22;6268;48.188;17.134;2022-07-10T02:47:21;18.10;99.90
12408;DHT22;6268;48.188;17.134;2022-07-10T02:49:50;18.10;99.90
12408;DHT22;6268;48.188;17.134;2022-07-10T02:52:18;18.10;99.90
12408;DHT22;6268;48.188;17.134;2022-07-10T02:54:47;18.10;99.90
12408;DHT22;6268;48.188;17.134;2022-07-10T02:57:17;18.10;99.90
12408;DHT22;6268;48.188;17.134;2022-07-10T02:59:46;18.10;99.90
12408;DHT22;6268;48.188;17.134;2022-07-10T03:02:15;18.10;99.90
12408;DHT22;6268;48.188;17.134;2022-07-10T03:04:45;18.10;99.90
12408;DHT22;6268;48.188;17.134;2022-07-10T03:07:14;18.10;99.90
12408;DHT22;6268;48.188;17.134;2022-07-10T03:09:42;18.10;99.90
12408;DHT22;6268;48.188;17.134;2022-07-10T03:12:11;18.10;99.90
12408;DHT22;6268;48.188;17.134;2022-07-10T03:14:40;18.10;99.90
12408;DHT22;6268;48.188;17.134;2022-07-10T03:17:08;18.10;99.90
12408;DHT22;6268;48.188;17.134;2022-07-10T03:19:37;18.10;99.90
12408;DHT22;6268;48.188;17.134;2022-07-10T03:22:07;18.10;99.90
12408;DHT22;6268;48.188;17.134;2022-07-10T03:24:36;18.00;99.90
12408;DHT22;6268;48.188;17.134;2022-07-10T03:27:05;18.10;99.90
12408;DHT22;6268;48.188;17.134;2022-07-10T03:29:34;18.00;99.90
12408;DHT22;6268;48.188;17.134;2022-07-10T03:32:03;18.00;99.90
12408;DHT22;6268;48.188;17.134;2022-07-10T03:34:32;18.00;99.90
12408;DHT22;6268;48.188;17.134;2022-07-10T03:37:01;18.00;99.90
12408;DHT22;6268;48.188;17.134;2022-07-10T03:39:32;18.00;99.90
12408;DHT22;6268;48.188;17.134;2022-07-10T03:42:01;18.00;99.90
12408;DHT22;6268;48.188;17.134;2022-07-10T03:44:29;17.90;99.90
12408;DHT22;6268;48.188;17.134;2022-07-10T03:46:58;18.00;99.90
12408;DHT22;6268;48.188;17.134;2022-07-10T03:49:27;18.00;99.90
12408;DHT22;6268;48.188;17.134;2022-07-10T03:51:58;18.00;99.90
12408;DHT22;6268;48.188;17.134;2022-07-10T03:54:28;18.10;99.90
12408;DHT22;6268;48.188;17.134;2022-07-10T03:56:59;18.00;99.90
12408;DHT22;6268;48.188;17.134;2022-07-10T03:59:45;18.10;99.90
12408;DHT22;6268;48.188;17.134;2022-07-10T04:02:13;18.10;99.90
12408;DHT22;6268;48.188;17.134;2022-07-10T04:04:42;18.10;99.90
12408;DHT22;6268;48.188;17.134;2022-07-10T04:07:11;18.10;99.90
12408;DHT22;6268;48.188;17.134;2022-07-10T04:09:40;18.20;99.90
12408;DHT22;6268;48.188;17.134;2022-07-10T04:12:10;18.20;99.90
12408;DHT22;6268;48.188;17.134;2022-07-10T04:14:39;18.20;99.90
12408;DHT22;6268;48.188;17.134;2022-07-10T04:17:07;18.20;99.90
12408;DHT22;6268;48.188;17.134;2022-07-10T04:19:36;18.20;99.90
12408;DHT22;6268;48.188;17.134;2022-07-10T04:22:05;18.20;99.90
12408;DHT22;6268;48.188;17.134;2022-07-10T04:24:34;18.30;99.90
12408;DHT22;6268;48.188;17.134;2022-07-10T04:27:04;18.20;99.90
12408;DHT22;6268;48.188;17.134;2022-07-10T04:29:35;18.20;99.90
12408;DHT22;6268;48.188;17.134;2022-07-10T04:32:04;18.10;99.90
12408;DHT22;6268;48.188;17.134;2022-07-10T04:34:33;18.20;99.90
12408;DHT22;6268;48.188;17.134;2022-07-10T04:37:02;18.10;99.90
12408;DHT22;6268;48.188;17.134;2022-07-10T04:39:31;18.10;99.90
12408;DHT22;6268;48.188;17.134;2022-07-10T04:42:00;18.10;99.90
12408;DHT22;6268;48.188;17.134;2022-07-10T04:44:30;18.10;99.90
12408;DHT22;6268;48.188;17.134;2022-07-10T04:47:00;18.10;99.90
12408;DHT22;6268;48.188;17.134;2022-07-10T04:49:29;18.10;99.90
12408;DHT22;6268;48.188;17.134;2022-07-10T04:51:58;18.10;99.90
12408;DHT22;6268;48.188;17.134;2022-07-10T04:54:27;18.00;99.90
12408;DHT22;6268;48.188;17.134;2022-07-10T04:56:56;18.10;99.90
12408;DHT22;6268;48.188;17.134;2022-07-10T04:59:24;18.00;99.90
12408;DHT22;6268;48.188;17.134;2022-07-10T05:01:53;18.00;99.90
12408;DHT22;6268;48.188;17.134;2022-07-10T05:04:23;18.00;99.90
12408;DHT22;6268;48.188;17.134;2022-07-10T05:06:52;18.10;99.90
12408;DHT22;6268;48.188;17.134;2022-07-10T05:09:20;18.40;99.90
12408;DHT22;6268;48.188;17.134;2022-07-10T05:11:49;18.80;99.90
12408;DHT22;6268;48.188;17.134;2022-07-10T05:14:18;19.40;99.90
12408;DHT22;6268;48.188;17.134;2022-07-10T05:16:47;20.20;99.90
12408;DHT22;6268;48.188;17.134;2022-07-10T05:19:16;21.10;99.90
12408;DHT22;6268;48.188;17.134;2022-07-10T05:21:46;21.90;99.90
12408;DHT22;6268;48.188;17.134;2022-07-10T05:24:14;22.80;99.90
12408;DHT22;6268;48.188;17.134;2022-07-10T05:26:43;23.60;99.90
12408;DHT22;6268;48.188;17.134;2022-07-10T05:29:12;24.50;99.90
12408;DHT22;6268;48.188;17.134;2022-07-10T05:31:41;25.20;99.90
12408;DHT22;6268;48.188;17.134;2022-07-10T05:34:09;25.80;99.90
12408;DHT22;6268;48.188;17.134;2022-07-10T05:36:38;26.30;99.90
12408;DHT22;6268;48.188;17.134;2022-07-10T05:39:08;26.80;99.90
12408;DHT22;6268;48.188;17.134;2022-07-10T05:41:37;27.20;99.30
12408;DHT22;6268;48.188;17.134;2022-07-10T05:44:05;27.30;97.80
12408;DHT22;6268;48.188;17.134;2022-07-10T05:46:34;27.30;97.00
12408;DHT22;6268;48.188;17.134;2022-07-10T05:49:03;27.20;96.60
12408;DHT22;6268;48.188;17.134;2022-07-10T05:51:32;27.20;96.50
12408;DHT22;6268;48.188;17.134;2022-07-10T05:54:12;27.30;95.60
12408;DHT22;6268;48.188;17.134;2022-07-10T05:56:40;27.30;95.20
12408;DHT22;6268;48.188;17.134;2022-07-10T05:59:09;26.90;94.90
12408;DHT22;6268;48.188;17.134;2022-07-10T06:01:38;26.20;95.80
12408;DHT22;6268;48.188;17.134;2022-07-10T06:04:07;25.60;97.20
12408;DHT22;6268;48.188;17.134;2022-07-10T06:06:36;24.90;98.50
12408;DHT22;6268;48.188;17.134;2022-07-10T06:09:04;24.30;99.90
12408;DHT22;6268;48.188;17.134;2022-07-10T06:11:35;24.00;99.90
12408;DHT22;6268;48.188;17.134;2022-07-10T06:14:04;23.70;99.90
12408;DHT22;6268;48.188;17.134;2022-07-10T06:16:32;23.60;99.90
12408;DHT22;6268;48.188;17.134;2022-07-10T06:19:01;23.90;99.90
12408;DHT22;6268;48.188;17.134;2022-07-10T06:21:30;24.40;99.90
12408;DHT22;6268;48.188;17.134;2022-07-10T06:23:59;25.10;99.90
12408;DHT22;6268;48.188;17.134;2022-07-10T06:26:27;25.50;99.90
12408;DHT22;6268;48.188;17.134;2022-07-10T06:28:57;25.40;99.90
12408;DHT22;6268;48.188;17.134;2022-07-10T06:31:26;25.40;99.90
12408;DHT22;6268;48.188;17.134;2022-07-10T06:33:55;25.80;99.90
12408;DHT22;6268;48.188;17.134;2022-07-10T06:36:24;26.40;98.80
12408;DHT22;6268;48.188;17.134;2022-07-10T06:38:59;27.00;96.70
12408;DHT22;6268;48.188;17.134;2022-07-10T06:41:28;27.60;94.20
12408;DHT22;6268;48.188;17.134;2022-07-10T06:43:58;27.30;93.70
12408;DHT22;6268;48.188;17.134;2022-07-10T06:46:27;26.80;93.60
12408;DHT22;6268;48.188;17.134;2022-07-10T06:48:57;26.10;94.60
12408;DHT22;6268;48.188;17.134;2022-07-10T06:51:24;25.80;94.60
12408;DHT22;6268;48.188;17.134;2022-07-10T06:53:55;25.60;95.40
12408;DHT22;6268;48.188;17.134;2022-07-10T06:56:24;25.80;94.70
12408;DHT22;6268;48.188;17.134;2022-07-10T06:58:54;26.30;94.30
12408;DHT22;6268;48.188;17.134;2022-07-10T07:01:24;26.60;93.00
12408;DHT22;6268;48.188;17.134;2022-07-10T07:03:53;26.40;92.80
12408;DHT22;6268;48.188;17.134;2022-07-10T07:06:21;26.00;92.50
12408;DHT22;6268;48.188;17.134;2022-07-10T07:08:50;25.60;93.00
12408;DHT22;6268;48.188;17.134;2022-07-10T07:11:19;25.30;93.80
12408;DHT22;6268;48.188;17.134;2022-07-10T07:13:48;25.00;94.40
12408;DHT22;6268;48.188;17.134;2022-07-10T07:16:17;24.70;94.90
12408;DHT22;6268;48.188;17.134;2022-07-10T07:18:48;24.50;96.00
12408;DHT22;6268;48.188;17.134;2022-07-10T07:21:19;24.20;95.80
12408;DHT22;6268;48.188;17.134;2022-07-10T07:24:06;24.00;96.80
12408;DHT22;6268;48.188;17.134;2022-07-10T07:26:34;23.70;98.70
12408;DHT22;6268;48.188;17.134;2022-07-10T07:29:03;23.50;99.60
12408;DHT22;6268;48.188;17.134;2022-07-10T07:31:32;23.50;98.90
12408;DHT22;6268;48.188;17.134;2022-07-10T07:34:02;23.20;99.40
12408;DHT22;6268;48.188;17.134;2022-07-10T07:36:31;23.00;99.90
12408;DHT22;6268;48.188;17.134;2022-07-10T07:39:00;22.90;99.90
12408;DHT22;6268;48.188;17.134;2022-07-10T07:41:29;23.00;99.90
12408;DHT22;6268;48.188;17.134;2022-07-10T07:43:57;22.90;99.90
12408;DHT22;6268;48.188;17.134;2022-07-10T07:46:26;22.90;99.90
12408;DHT22;6268;48.188;17.134;2022-07-10T07:48:55;22.80;99.90
12408;DHT22;6268;48.188;17.134;2022-07-10T07:51:25;22.90;99.90
12408;DHT22;6268;48.188;17.134;2022-07-10T07:53:54;22.90;99.90
12408;DHT22;6268;48.188;17.134;2022-07-10T07:56:23;22.90;99.90
12408;DHT22;6268;48.188;17.134;2022-07-10T07:58:51;22.90;99.90
12408;DHT22;6268;48.188;17.134;2022-07-10T08:01:20;22.90;99.90
12408;DHT22;6268;48.188;17.134;2022-07-10T08:03:49;22.80;99.90
12408;DHT22;6268;48.188;17.134;2022-07-10T08:06:36;22.70;99.90
12408;DHT22;6268;48.188;17.134;2022-07-10T08:09:05;22.60;99.90
12408;DHT22;6268;48.188;17.134;2022-07-10T08:11:34;22.50;99.90
12408;DHT22;6268;48.188;17.134;2022-07-10T08:14:03;22.60;99.90
12408;DHT22;6268;48.188;17.134;2022-07-10T08:16:31;22.90;99.90
12408;DHT22;6268;48.188;17.134;2022-07-10T08:19:00;23.00;99.90
12408;DHT22;6268;48.188;17.134;2022-07-10T08:21:29;23.10;99.90
12408;DHT22;6268;48.188;17.134;2022-07-10T08:24:04;23.20;99.90
12408;DHT22;6268;48.188;17.134;2022-07-10T08:26:33;23.20;99.90
12408;DHT22;6268;48.188;17.134;2022-07-10T08:29:02;23.10;99.90
12408;DHT22;6268;48.188;17.134;2022-07-10T08:31:31;23.00;99.90
12408;DHT22;6268;48.188;17.134;2022-07-10T08:34:00;22.90;99.90
12408;DHT22;6268;48.188;17.134;2022-07-10T08:36:29;22.90;99.90
12408;DHT22;6268;48.188;17.134;2022-07-10T08:39:10;22.70;99.90
12408;DHT22;6268;48.188;17.134;2022-07-10T08:41:39;22.70;99.90
12408;DHT22;6268;48.188;17.134;2022-07-10T08:44:08;22.60;99.90
12408;DHT22;6268;48.188;17.134;2022-07-10T08:46:37;22.70;99.90
12408;DHT22;6268;48.188;17.134;2022-07-10T08:49:09;22.70;99.90
12408;DHT22;6268;48.188;17.134;2022-07-10T08:51:44;22.70;99.90
12408;DHT22;6268;48.188;17.134;2022-07-10T08:54:18;22.60;99.90
12408;DHT22;6268;48.188;17.134;2022-07-10T08:56:48;22.50;99.90
12408;DHT22;6268;48.188;17.134;2022-07-10T08:59:19;22.40;99.90
12408;DHT22;6268;48.188;17.134;2022-07-10T09:01:57;22.30;99.90
12408;DHT22;6268;48.188;17.134;2022-07-10T09:04:27;22.30;99.90
12408;DHT22;6268;48.188;17.134;2022-07-10T09:06:56;22.40;99.90
12408;DHT22;6268;48.188;17.134;2022-07-10T09:09:26;22.40;99.90
12408;DHT22;6268;48.188;17.134;2022-07-10T09:11:58;22.50;99.90
12408;DHT22;6268;48.188;17.134;2022-07-10T09:14:27;22.40;99.90
12408;DHT22;6268;48.188;17.134;2022-07-10T09:17:01;22.40;99.90
12408;DHT22;6268;48.188;17.134;2022-07-10T09:19:31;22.40;99.90
12408;DHT22;6268;48.188;17.134;2022-07-10T09:22:04;22.20;99.90
12408;DHT22;6268;48.188;17.134;2022-07-10T09:24:40;22.10;99.90
12408;DHT22;6268;48.188;17.134;2022-07-10T09:27:11;22.10;99.90
12408;DHT22;6268;48.188;17.134;2022-07-10T09:29:45;22.10;99.90
12408;DHT22;6268;48.188;17.134;2022-07-10T09:32:16;22.10;99.90
12408;DHT22;6268;48.188;17.134;2022-07-10T09:34:46;22.10;99.90
12408;DHT22;6268;48.188;17.134;2022-07-10T09:37:23;22.20;99.90
12408;DHT22;6268;48.188;17.134;2022-07-10T09:39:57;22.30;99.90
12408;DHT22;6268;48.188;17.134;2022-07-10T09:42:29;22.50;99.90
12408;DHT22;6268;48.188;17.134;2022-07-10T09:45:19;22.60;99.90
12408;DHT22;6268;48.188;17.134;2022-07-10T09:47:56;22.90;99.90
12408;DHT22;6268;48.188;17.134;2022-07-10T09:50:29;23.40;99.90
12408;DHT22;6268;48.188;17.134;2022-07-10T09:53:00;23.70;99.90
12408;DHT22;6268;48.188;17.134;2022-07-10T09:55:33;24.10;99.90
12408;DHT22;6268;48.188;17.134;2022-07-10T09:58:05;24.80;99.90
12408;DHT22;6268;48.188;17.134;2022-07-10T10:00:35;25.10;99.90
12408;DHT22;6268;48.188;17.134;2022-07-10T10:03:07;25.20;99.90
12408;DHT22;6268;48.188;17.134;2022-07-10T10:05:42;25.20;99.90
12408;DHT22;6268;48.188;17.134;2022-07-10T10:08:16;25.30;99.90
12408;DHT22;6268;48.188;17.134;2022-07-10T10:10:48;25.40;99.90
12408;DHT22;6268;48.188;17.134;2022-07-10T10:13:19;25.70;99.90
12408;DHT22;6268;48.188;17.134;2022-07-10T10:15:50;26.10;99.00
12408;DHT22;6268;48.188;17.134;2022-07-10T10:18:21;26.20;98.60
12408;DHT22;6268;48.188;17.134;2022-07-10T10:20:52;26.50;98.40
12408;DHT22;6268;48.188;17.134;2022-07-10T10:23:22;26.60;96.90
12408;DHT22;6268;48.188;17.134;2022-07-10T10:25:55;26.30;94.90
12408;DHT22;6268;48.188;17.134;2022-07-10T10:28:25;26.20;93.30
12408;DHT22;6268;48.188;17.134;2022-07-10T10:30:56;25.80;94.00
12408;DHT22;6268;48.188;17.134;2022-07-10T10:33:44;25.40;95.40
12408;DHT22;6268;48.188;17.134;2022-07-10T10:36:44;25.10;96.80
12408;DHT22;6268;48.188;17.134;2022-07-10T10:39:17;25.10;96.30
12408;DHT22;6268;48.188;17.134;2022-07-10T10:41:50;25.20;95.10
12408;DHT22;6268;48.188;17.134;2022-07-10T10:44:28;25.40;93.90
12408;DHT22;6268;48.188;17.134;2022-07-10T10:47:06;25.50;93.70
12408;DHT22;6268;48.188;17.134;2022-07-10T10:49:53;25.60;90.70
12408;DHT22;6268;48.188;17.134;2022-07-10T10:52:29;25.30;90.90
12408;DHT22;6268;48.188;17.134;2022-07-10T10:55:05;25.10;91.50
12408;DHT22;6268;48.188;17.134;2022-07-10T10:57:44;24.80;90.20
12408;DHT22;6268;48.188;17.134;2022-07-10T11:00:30;24.80;90.00
12408;DHT22;6268;48.188;17.134;2022-07-10T11:03:18;25.00;86.60
12408;DHT22;6268;48.188;17.134;2022-07-10T11:05:49;25.20;86.50
12408;DHT22;6268;48.188;17.134;2022-07-10T11:08:38;25.30;85.40
12408;DHT22;6268;48.188;17.134;2022-07-10T11:11:38;25.30;83.20
12408;DHT22;6268;48.188;17.134;2022-07-10T11:14:10;25.50;83.30
12408;DHT22;6268;48.188;17.134;2022-07-10T11:16:46;25.50;79.20
12408;DHT22;6268;48.188;17.134;2022-07-10T11:19:24;25.40;85.60
12408;DHT22;6268;48.188;17.134;2022-07-10T11:25:24;25.00;77.20
12408;DHT22;6268;48.188;17.134;2022-07-10T11:28:09;24.90;74.50
12408;DHT22;6268;48.188;17.134;2022-07-10T11:30:49;24.80;75.20
12408;DHT22;6268;48.188;17.134;2022-07-10T11:33:20;24.80;75.00
12408;DHT22;6268;48.188;17.134;2022-07-10T11:35:52;24.80;72.80
12408;DHT22;6268;48.188;17.134;2022-07-10T11:38:22;24.80;75.90
12408;DHT22;6268;48.188;17.134;2022-07-10T11:40:52;24.60;74.00
12408;DHT22;6268;48.188;17.134;2022-07-10T11:43:22;24.60;73.30
12408;DHT22;6268;48.188;17.134;2022-07-10T11:45:53;24.70;74.00
12408;DHT22;6268;48.188;17.134;2022-07-10T11:48:26;24.80;71.40
12408;DHT22;6268;48.188;17.134;2022-07-10T11:50:55;24.80;70.50
12408;DHT22;6268;48.188;17.134;2022-07-10T11:53:25;24.70;70.10
12408;DHT22;6268;48.188;17.134;2022-07-10T11:55:55;24.60;71.10
12408;DHT22;6268;48.188;17.134;2022-07-10T11:58:24;24.60;72.20
12408;DHT22;6268;48.188;17.134;2022-07-10T12:01:01;24.80;70.80
12408;DHT22;6268;48.188;17.134;2022-07-10T12:03:34;24.80;69.30
12408;DHT22;6268;48.188;17.134;2022-07-10T12:06:05;25.00;68.80
12408;DHT22;6268;48.188;17.134;2022-07-10T12:08:44;24.80;65.40
12408;DHT22;6268;48.188;17.134;2022-07-10T12:11:14;24.70;66.00
12408;DHT22;6268;48.188;17.134;2022-07-10T12:13:44;24.60;65.80
12408;DHT22;6268;48.188;17.134;2022-07-10T12:16:15;24.50;65.00
12408;DHT22;6268;48.188;17.134;2022-07-10T12:18:45;24.40;64.00
12408;DHT22;6268;48.188;17.134;2022-07-10T12:21:16;24.40;65.10
12408;DHT22;6268;48.188;17.134;2022-07-10T12:23:45;24.40;64.30
12408;DHT22;6268;48.188;17.134;2022-07-10T12:26:15;24.30;63.80
12408;DHT22;6268;48.188;17.134;2022-07-10T12:28:53;24.30;62.20
12408;DHT22;6268;48.188;17.134;2022-07-10T12:31:26;24.30;63.30
12408;DHT22;6268;48.188;17.134;2022-07-10T12:33:58;24.30;60.10
12408;DHT22;6268;48.188;17.134;2022-07-10T12:36:46;24.30;58.50
12408;DHT22;6268;48.188;17.134;2022-07-10T12:39:18;24.40;60.20
12408;DHT22;6268;48.188;17.134;2022-07-10T12:41:56;24.30;58.90
12408;DHT22;6268;48.188;17.134;2022-07-10T12:44:37;24.20;58.00
12408;DHT22;6268;48.188;17.134;2022-07-10T12:47:11;24.00;57.70
12408;DHT22;6268;48.188;17.134;2022-07-10T12:49:54;23.80;58.30
12408;DHT22;6268;48.188;17.134;2022-07-10T12:52:26;23.90;58.60
12408;DHT22;6268;48.188;17.134;2022-07-10T12:55:12;24.00;58.40
12408;DHT22;6268;48.188;17.134;2022-07-10T12:57:50;24.20;57.60
12408;DHT22;6268;48.188;17.134;2022-07-10T13:00:21;24.20;56.60
12408;DHT22;6268;48.188;17.134;2022-07-10T13:02:59;24.00;58.30
12408;DHT22;6268;48.188;17.134;2022-07-10T13:05:31;24.00;57.20
12408;DHT22;6268;48.188;17.134;2022-07-10T13:08:08;23.80;57.10
12408;DHT22;6268;48.188;17.134;2022-07-10T13:10:40;23.80;57.00
12408;DHT22;6268;48.188;17.134;2022-07-10T13:13:10;23.70;56.90
12408;DHT22;6268;48.188;17.134;2022-07-10T13:15:40;23.60;57.30
12408;DHT22;6268;48.188;17.134;2022-07-10T13:18:16;23.60;57.00
12408;DHT22;6268;48.188;17.134;2022-07-10T13:20:46;23.60;57.70
12408;DHT22;6268;48.188;17.134;2022-07-10T13:23:18;23.70;57.70
12408;DHT22;6268;48.188;17.134;2022-07-10T13:25:49;23.80;57.70
12408;DHT22;6268;48.188;17.134;2022-07-10T13:28:18;23.90;58.20
12408;DHT22;6268;48.188;17.134;2022-07-10T13:30:47;23.90;57.30
12408;DHT22;6268;48.188;17.134;2022-07-10T13:33:18;23.80;57.60
12408;DHT22;6268;48.188;17.134;2022-07-10T13:35:47;23.80;58.80
12408;DHT22;6268;48.188;17.134;2022-07-10T13:38:16;23.90;58.00
12408;DHT22;6268;48.188;17.134;2022-07-10T13:40:47;23.80;58.00
12408;DHT22;6268;48.188;17.134;2022-07-10T13:43:16;23.80;57.70
12408;DHT22;6268;48.188;17.134;2022-07-10T13:45:47;23.80;56.70
12408;DHT22;6268;48.188;17.134;2022-07-10T13:48:16;23.60;57.20
12408;DHT22;6268;48.188;17.134;2022-07-10T13:50:46;23.60;57.00
12408;DHT22;6268;48.188;17.134;2022-07-10T13:53:17;23.50;57.60
12408;DHT22;6268;48.188;17.134;2022-07-10T13:55:46;23.60;57.30
12408;DHT22;6268;48.188;17.134;2022-07-10T13:58:15;23.60;57.20
12408;DHT22;6268;48.188;17.134;2022-07-10T14:00:45;23.50;57.20
12408;DHT22;6268;48.188;17.134;2022-07-10T14:03:14;23.50;56.20
12408;DHT22;6268;48.188;17.134;2022-07-10T14:05:44;23.50;56.10
12408;DHT22;6268;48.188;17.134;2022-07-10T14:08:13;23.50;56.20
12408;DHT22;6268;48.188;17.134;2022-07-10T14:10:43;23.60;55.60
12408;DHT22;6268;48.188;17.134;2022-07-10T14:13:12;23.70;55.40
12408;DHT22;6268;48.188;17.134;2022-07-10T14:15:41;23.80;55.90
12408;DHT22;6268;48.188;17.134;2022-07-10T14:18:11;23.80;55.10
12408;DHT22;6268;48.188;17.134;2022-07-10T14:20:40;23.80;55.00
12408;DHT22;6268;48.188;17.134;2022-07-10T14:23:28;23.80;55.30
12408;DHT22;6268;48.188;17.134;2022-07-10T14:25:57;23.80;54.40
12408;DHT22;6268;48.188;17.134;2022-07-10T14:28:26;23.80;54.90
12408;DHT22;6268;48.188;17.134;2022-07-10T14:30:54;23.80;54.30
12408;DHT22;6268;48.188;17.134;2022-07-10T14:33:25;23.80;54.40
12408;DHT22;6268;48.188;17.134;2022-07-10T14:35:53;23.60;54.70
12408;DHT22;6268;48.188;17.134;2022-07-10T14:38:22;23.50;53.60
12408;DHT22;6268;48.188;17.134;2022-07-10T14:40:54;23.50;54.90
12408;DHT22;6268;48.188;17.134;2022-07-10T14:43:23;23.40;55.30
12408;DHT22;6268;48.188;17.134;2022-07-10T14:45:53;23.50;55.50
12408;DHT22;6268;48.188;17.134;2022-07-10T14:48:29;23.50;54.20
12408;DHT22;6268;48.188;17.134;2022-07-10T14:50:58;23.50;55.00
12408;DHT22;6268;48.188;17.134;2022-07-10T14:53:27;23.30;54.80
12408;DHT22;6268;48.188;17.134;2022-07-10T14:55:57;23.30;55.40
12408;DHT22;6268;48.188;17.134;2022-07-10T14:58:26;23.30;55.10
12408;DHT22;6268;48.188;17.134;2022-07-10T15:00:55;23.20;53.60
12408;DHT22;6268;48.188;17.134;2022-07-10T15:03:24;23.20;54.00
12408;DHT22;6268;48.188;17.134;2022-07-10T15:05:52;23.20;55.10
12408;DHT22;6268;48.188;17.134;2022-07-10T15:08:23;23.20;54.50
12408;DHT22;6268;48.188;17.134;2022-07-10T15:10:52;23.20;55.00
12408;DHT22;6268;48.188;17.134;2022-07-10T15:13:23;23.30;56.20
12408;DHT22;6268;48.188;17.134;2022-07-10T15:15:51;23.30;56.60
12408;DHT22;6268;48.188;17.134;2022-07-10T15:18:21;23.20;56.90
12408;DHT22;6268;48.188;17.134;2022-07-10T15:20:49;23.10;56.70
12408;DHT22;6268;48.188;17.134;2022-07-10T15:23:18;22.90;57.60
12408;DHT22;6268;48.188;17.134;2022-07-10T15:25:47;22.90;57.80
12408;DHT22;6268;48.188;17.134;2022-07-10T15:28:15;22.90;57.90
12408;DHT22;6268;48.188;17.134;2022-07-10T15:30:46;22.80;57.60
12408;DHT22;6268;48.188;17.134;2022-07-10T15:33:14;22.70;57.80
12408;DHT22;6268;48.188;17.134;2022-07-10T15:35:43;22.70;59.30
12408;DHT22;6268;48.188;17.134;2022-07-10T15:38:12;22.70;59.60
12408;DHT22;6268;48.188;17.134;2022-07-10T15:40:40;22.70;59.60
12408;DHT22;6268;48.188;17.134;2022-07-10T15:43:09;22.70;59.50
12408;DHT22;6268;48.188;17.134;2022-07-10T15:45:38;22.70;59.70
12408;DHT22;6268;48.188;17.134;2022-07-10T15:48:08;22.70;60.60
12408;DHT22;6268;48.188;17.134;2022-07-10T15:50:41;22.70;61.50
12408;DHT22;6268;48.188;17.134;2022-07-10T15:53:10;22.80;63.90
12408;DHT22;6268;48.188;17.134;2022-07-10T15:55:39;23.00;59.00